sensor_id;sensor_type;location;lat;lon;timestamp;temperature;humidity
21163;DHT22;10739;52.198;20.908;2023-04-16T00:00:18;8.50;99.90
21163;DHT22;10739;52.198;20.908;2023-04-16T00:02:44;8.50;99.90
21163;DHT22;10739;52.198;20.908;2023-04-16T00:05:10;8.50;99.90
21163;DHT22;10739;52.198;20.908;2023-04-16T00:07:37;8.50;99.90
21163;DHT22;10739;52.198;20.908;2023-04-16T00:10:04;8.50;99.90
21163;DHT22;10739;52.198;20.908;2023-04-16T00:12:31;8.50;99.90
21163;DHT22;10739;52.198;20.908;2023-04-16T00:14:58;8.50;99.90
21163;DHT22;10739;52.198;20.908;2023-04-16T00:17:24;8.50;99.90
21163;DHT22;10739;52.198;20.908;2023-04-16T00:19:50;8.50;99.90
21163;DHT22;10739;52.198;20.908;2023-04-16T00:22:17;8.50;99.90
21163;DHT22;10739;52.198;20.908;2023-04-16T00:24:44;8.50;99.90
21163;DHT22;10739;52.198;20.908;2023-04-16T00:27:10;8.50;99.90
21163;DHT22;10739;52.198;20.908;2023-04-16T00:29:36;8.40;99.90
21163;DHT22;10739;52.198;20.908;2023-04-16T00:32:03;8.40;99.90
21163;DHT22;10739;52.198;20.908;2023-04-16T00:34:29;8.40;99.90
21163;DHT22;10739;52.198;20.908;2023-04-16T00:36:55;8.30;99.90
21163;DHT22;10739;52.198;20.908;2023-04-16T00:39:22;8.30;99.90
21163;DHT22;10739;52.198;20.908;2023-04-16T00:41:48;8.30;99.90
21163;DHT22;10739;52.198;20.908;2023-04-16T00:44:14;8.30;99.90
21163;DHT22;10739;52.198;20.908;2023-04-16T00:46:41;8.30;99.90
21163;DHT22;10739;52.198;20.908;2023-04-16T00:49:08;8.30;99.90
21163;DHT22;10739;52.198;20.908;2023-04-16T00:51:35;8.30;99.90
21163;DHT22;10739;52.198;20.908;2023-04-16T00:54:02;8.20;99.90
21163;DHT22;10739;52.198;20.908;2023-04-16T00:56:29;8.20;99.90
21163;DHT22;10739;52.198;20.908;2023-04-16T00:58:56;8.30;99.90
21163;DHT22;10739;52.198;20.908;2023-04-16T01:01:23;8.30;99.90
21163;DHT22;10739;52.198;20.908;2023-04-16T01:03:50;8.30;99.90
21163;DHT22;10739;52.198;20.908;2023-04-16T01:06:17;8.30;99.90
21163;DHT22;10739;52.198;20.908;2023-04-16T01:08:44;8.30;99.90
21163;DHT22;10739;52.198;20.908;2023-04-16T01:11:13;8.30;99.90
21163;DHT22;10739;52.198;20.908;2023-04-16T01:13:40;8.20;99.90
21163;DHT22;10739;52.198;20.908;2023-04-16T01:16:09;8.20;99.90
21163;DHT22;10739;52.198;20.908;2023-04-16T01:18:37;8.20;99.90
21163;DHT22;10739;52.198;20.908;2023-04-16T01:21:04;8.20;99.90
21163;DHT22;10739;52.198;20.908;2023-04-16T01:23:31;8.20;99.90
21163;DHT22;10739;52.198;20.908;2023-04-16T01:25:58;8.20;99.90
21163;DHT22;10739;52.198;20.908;2023-04-16T01:28:24;8.20;99.90
21163;DHT22;10739;52.198;20.908;2023-04-16T01:30:51;8.20;99.90
21163;DHT22;10739;52.198;20.908;2023-04-16T01:33:18;8.20;99.90
21163;DHT22;10739;52.198;20.908;2023-04-16T01:35:44;8.20;99.90
21163;DHT22;10739;52.198;20.908;2023-04-16T01:38:10;8.10;99.90
21163;DHT22;10739;52.198;20.908;2023-04-16T01:40:37;8.20;99.90
21163;DHT22;10739;52.198;20.908;2023-04-16T01:43:03;8.20;99.90
21163;DHT22;10739;52.198;20.908;2023-04-16T01:45:33;8.20;99.90
21163;DHT22;10739;52.198;20.908;2023-04-16T01:48:00;8.10;99.90
21163;DHT22;10739;52.198;20.908;2023-04-16T01:50:28;8.10;99.90
21163;DHT22;10739;52.198;20.908;2023-04-16T01:52:55;8.10;99.90
21163;DHT22;10739;52.198;20.908;2023-04-16T01:55:22;8.10;99.90
21163;DHT22;10739;52.198;20.908;2023-04-16T01:57:49;8.20;99.90
21163;DHT22;10739;52.198;20.908;2023-04-16T02:00:16;8.10;99.90
21163;DHT22;10739;52.198;20.908;2023-04-16T02:02:42;8.10;99.90
21163;DHT22;10739;52.198;20.908;2023-04-16T02:05:09;8.10;99.90
21163;DHT22;10739;52.198;20.908;2023-04-16T02:07:35;8.10;99.90
21163;DHT22;10739;52.198;20.908;2023-04-16T02:10:01;8.10;99.90
21163;DHT22;10739;52.198;20.908;2023-04-16T02:12:29;8.10;99.90
21163;DHT22;10739;52.198;20.908;2023-04-16T02:14:55;8.10;99.90
21163;DHT22;10739;52.198;20.908;2023-04-16T02:17:21;8.10;99.90
21163;DHT22;10739;52.198;20.908;2023-04-16T02:19:48;8.10;99.90
21163;DHT22;10739;52.198;20.908;2023-04-16T02:22:14;8.00;99.90
21163;DHT22;10739;52.198;20.908;2023-04-16T02:24:40;8.00;99.90
21163;DHT22;10739;52.198;20.908;2023-04-16T02:27:07;8.00;99.90
21163;DHT22;10739;52.198;20.908;2023-04-16T02:29:33;8.00;99.90
21163;DHT22;10739;52.198;20.908;2023-04-16T02:32:00;7.90;99.90
21163;DHT22;10739;52.198;20.908;2023-04-16T02:34:26;7.90;99.90
21163;DHT22;10739;52.198;20.908;2023-04-16T02:36:52;7.90;99.90
21163;DHT22;10739;52.198;20.908;2023-04-16T02:39:20;7.90;99.90
21163;DHT22;10739;52.198;20.908;2023-04-16T02:41:46;7.90;99.90
21163;DHT22;10739;52.198;20.908;2023-04-16T02:44:13;7.80;99.90
21163;DHT22;10739;52.198;20.908;2023-04-16T02:46:39;7.90;99.90
21163;DHT22;10739;52.198;20.908;2023-04-16T02:49:05;7.90;99.90
21163;DHT22;10739;52.198;20.908;2023-04-16T02:51:31;7.90;99.90
21163;DHT22;10739;52.198;20.908;2023-04-16T02:53:58;7.90;99.90
21163;DHT22;10739;52.198;20.908;2023-04-16T02:56:24;7.90;99.90
21163;DHT22;10739;52.198;20.908;2023-04-16T02:58:50;7.90;99.90
21163;DHT22;10739;52.198;20.908;2023-04-16T03:01:17;7.90;99.90
21163;DHT22;10739;52.198;20.908;2023-04-16T03:03:43;7.80;99.90
21163;DHT22;10739;52.198;20.908;2023-04-16T03:06:10;7.90;99.90
21163;DHT22;10739;52.198;20.908;2023-04-16T03:08:36;7.90;99.90
21163;DHT22;10739;52.198;20.908;2023-04-16T03:11:02;7.90;99.90
21163;DHT22;10739;52.198;20.908;2023-04-16T03:13:29;7.90;99.90
21163;DHT22;10739;52.198;20.908;2023-04-16T03:15:55;7.90;99.90
21163;DHT22;10739;52.198;20.908;2023-04-16T03:18:21;7.90;99.90
21163;DHT22;10739;52.198;20.908;2023-04-16T03:20:51;7.90;99.90
21163;DHT22;10739;52.198;20.908;2023-04-16T03:23:17;7.90;99.90
21163;DHT22;10739;52.198;20.908;2023-04-16T03:25:44;7.90;99.90
21163;DHT22;10739;52.198;20.908;2023-04-16T03:28:13;7.90;99.90
21163;DHT22;10739;52.198;20.908;2023-04-16T03:30:40;7.90;99.90
21163;DHT22;10739;52.198;20.908;2023-04-16T03:33:06;7.90;99.90
21163;DHT22;10739;52.198;20.908;2023-04-16T03:35:32;7.90;99.90
21163;DHT22;10739;52.198;20.908;2023-04-16T03:37:58;7.90;99.90
21163;DHT22;10739;52.198;20.908;2023-04-16T03:40:25;7.90;99.90
21163;DHT22;10739;52.198;20.908;2023-04-16T03:42:51;7.90;99.90
21163;DHT22;10739;52.198;20.908;2023-04-16T03:45:18;7.90;99.90
21163;DHT22;10739;52.198;20.908;2023-04-16T03:47:44;8.00;99.90
21163;DHT22;10739;52.198;20.908;2023-04-16T03:50:13;8.00;99.90
21163;DHT22;10739;52.198;20.908;2023-04-16T03:52:39;8.00;99.90
21163;DHT22;10739;52.198;20.908;2023-04-16T03:55:05;8.00;99.90
21163;DHT22;10739;52.198;20.908;2023-04-16T03:57:32;8.00;99.90
21163;DHT22;10739;52.198;20.908;2023-04-16T03:59:58;8.10;99.90
21163;DHT22;10739;52.198;20.908;2023-04-16T04:02:24;8.10;99.90
21163;DHT22;10739;52.198;20.908;2023-04-16T04:04:51;8.10;99.90
21163;DHT22;10739;52.198;20.908;2023-04-16T04:07:17;8.10;99.90
21163;DHT22;10739;52.198;20.908;2023-04-16T04:09:44;8.10;99.90
21163;DHT22;10739;52.198;20.908;2023-04-16T04:12:10;8.10;99.90
21163;DHT22;10739;52.198;20.908;2023-04-16T04:14:36;8.10;99.90
21163;DHT22;10739;52.198;20.908;2023-04-16T04:17:05;8.10;99.90
21163;DHT22;10739;52.198;20.908;2023-04-16T04:19:32;8.10;99.90
21163;DHT22;10739;52.198;20.908;2023-04-16T04:21:58;8.10;99.90
21163;DHT22;10739;52.198;20.908;2023-04-16T04:24:24;8.10;99.90
21163;DHT22;10739;52.198;20.908;2023-04-16T04:26:51;8.10;99.90
21163;DHT22;10739;52.198;20.908;2023-04-16T04:29:18;8.20;99.90
21163;DHT22;10739;52.198;20.908;2023-04-16T04:31:44;8.20;99.90
21163;DHT22;10739;52.198;20.908;2023-04-16T04:34:10;8.10;99.90
21163;DHT22;10739;52.198;20.908;2023-04-16T04:36:37;8.20;99.90
21163;DHT22;10739;52.198;20.908;2023-04-16T04:39:03;8.10;99.90
21163;DHT22;10739;52.198;20.908;2023-04-16T04:41:29;8.10;99.90
21163;DHT22;10739;52.198;20.908;2023-04-16T04:43:56;8.10;99.90
21163;DHT22;10739;52.198;20.908;2023-04-16T04:46:22;8.20;99.90
21163;DHT22;10739;52.198;20.908;2023-04-16T04:48:49;8.20;99.90
21163;DHT22;10739;52.198;20.908;2023-04-16T04:51:15;8.30;99.90
21163;DHT22;10739;52.198;20.908;2023-04-16T04:53:41;8.30;99.90
21163;DHT22;10739;52.198;20.908;2023-04-16T04:56:08;8.40;99.90
21163;DHT22;10739;52.198;20.908;2023-04-16T04:58:34;8.40;99.90
21163;DHT22;10739;52.198;20.908;2023-04-16T05:01:00;8.50;99.90
21163;DHT22;10739;52.198;20.908;2023-04-16T05:03:26;8.50;99.90
21163;DHT22;10739;52.198;20.908;2023-04-16T05:05:53;8.60;99.90
21163;DHT22;10739;52.198;20.908;2023-04-16T05:08:19;8.60;99.90
21163;DHT22;10739;52.198;20.908;2023-04-16T05:10:45;8.60;99.90
21163;DHT22;10739;52.198;20.908;2023-04-16T05:13:12;8.60;99.90
21163;DHT22;10739;52.198;20.908;2023-04-16T05:15:38;8.60;99.90
21163;DHT22;10739;52.198;20.908;2023-04-16T05:18:05;8.70;99.90
21163;DHT22;10739;52.198;20.908;2023-04-16T05:20:31;8.70;99.90
21163;DHT22;10739;52.198;20.908;2023-04-16T05:22:57;8.70;99.90
21163;DHT22;10739;52.198;20.908;2023-04-16T05:25:24;8.80;99.90
21163;DHT22;10739;52.198;20.908;2023-04-16T05:27:50;8.80;99.90
21163;DHT22;10739;52.198;20.908;2023-04-16T05:30:16;8.80;99.90
21163;DHT22;10739;52.198;20.908;2023-04-16T05:32:42;8.80;99.90
21163;DHT22;10739;52.198;20.908;2023-04-16T05:35:09;8.80;99.90
21163;DHT22;10739;52.198;20.908;2023-04-16T05:37:35;8.90;99.90
21163;DHT22;10739;52.198;20.908;2023-04-16T05:40:01;8.90;99.90
21163;DHT22;10739;52.198;20.908;2023-04-16T05:42:28;8.90;99.90
21163;DHT22;10739;52.198;20.908;2023-04-16T05:44:55;8.90;99.90
21163;DHT22;10739;52.198;20.908;2023-04-16T05:47:21;8.90;99.90
21163;DHT22;10739;52.198;20.908;2023-04-16T05:49:47;9.00;99.90
21163;DHT22;10739;52.198;20.908;2023-04-16T05:52:13;8.90;99.90
21163;DHT22;10739;52.198;20.908;2023-04-16T05:54:40;9.00;99.90
21163;DHT22;10739;52.198;20.908;2023-04-16T05:57:06;9.00;99.90
21163;DHT22;10739;52.198;20.908;2023-04-16T05:59:33;9.00;99.90
21163;DHT22;10739;52.198;20.908;2023-04-16T06:01:59;9.00;99.90
21163;DHT22;10739;52.198;20.908;2023-04-16T06:04:25;9.00;99.90
21163;DHT22;10739;52.198;20.908;2023-04-16T06:06:51;8.90;99.90
21163;DHT22;10739;52.198;20.908;2023-04-16T06:09:18;9.00;99.90
21163;DHT22;10739;52.198;20.908;2023-04-16T06:11:44;9.00;99.90
21163;DHT22;10739;52.198;20.908;2023-04-16T06:14:10;9.00;99.90
21163;DHT22;10739;52.198;20.908;2023-04-16T06:16:37;9.00;99.90
21163;DHT22;10739;52.198;20.908;2023-04-16T06:19:03;9.00;99.90
21163;DHT22;10739;52.198;20.908;2023-04-16T06:21:30;9.00;99.90
21163;DHT22;10739;52.198;20.908;2023-04-16T06:23:57;9.00;99.90
21163;DHT22;10739;52.198;20.908;2023-04-16T06:26:23;9.00;99.90
21163;DHT22;10739;52.198;20.908;2023-04-16T06:28:49;9.00;99.90
21163;DHT22;10739;52.198;20.908;2023-04-16T06:31:15;8.90;99.90
21163;DHT22;10739;52.198;20.908;2023-04-16T06:33:42;8.90;99.90
21163;DHT22;10739;52.198;20.908;2023-04-16T06:36:08;9.00;99.90
21163;DHT22;10739;52.198;20.908;2023-04-16T06:38:36;9.10;99.90
21163;DHT22;10739;52.198;20.908;2023-04-16T06:41:02;9.10;99.90
21163;DHT22;10739;52.198;20.908;2023-04-16T06:43:29;9.10;99.90
21163;DHT22;10739;52.198;20.908;2023-04-16T06:45:58;9.00;99.90
21163;DHT22;10739;52.198;20.908;2023-04-16T06:48:24;9.10;99.90
21163;DHT22;10739;52.198;20.908;2023-04-16T06:50:51;9.10;99.90
21163;DHT22;10739;52.198;20.908;2023-04-16T06:53:18;9.10;99.90
21163;DHT22;10739;52.198;20.908;2023-04-16T06:55:44;9.20;99.90
21163;DHT22;10739;52.198;20.908;2023-04-16T06:58:10;9.20;99.90
21163;DHT22;10739;52.198;20.908;2023-04-16T07:00:37;9.00;99.90
21163;DHT22;10739;52.198;20.908;2023-04-16T07:03:03;9.30;99.90
21163;DHT22;10739;52.198;20.908;2023-04-16T07:05:29;9.30;99.90
21163;DHT22;10739;52.198;20.908;2023-04-16T07:07:57;9.30;99.90
21163;DHT22;10739;52.198;20.908;2023-04-16T07:10:24;9.40;99.90
21163;DHT22;10739;52.198;20.908;2023-04-16T07:12:50;9.50;99.90
21163;DHT22;10739;52.198;20.908;2023-04-16T07:15:16;9.50;99.90
21163;DHT22;10739;52.198;20.908;2023-04-16T07:17:43;9.60;99.90
21163;DHT22;10739;52.198;20.908;2023-04-16T07:20:09;9.50;99.90
21163;DHT22;10739;52.198;20.908;2023-04-16T07:22:36;9.50;99.90
21163;DHT22;10739;52.198;20.908;2023-04-16T07:25:02;9.60;99.90
21163;DHT22;10739;52.198;20.908;2023-04-16T07:27:29;9.50;99.90
21163;DHT22;10739;52.198;20.908;2023-04-16T07:29:55;9.50;99.90
21163;DHT22;10739;52.198;20.908;2023-04-16T07:32:21;9.60;99.90
21163;DHT22;10739;52.198;20.908;2023-04-16T07:34:48;9.60;99.90
21163;DHT22;10739;52.198;20.908;2023-04-16T07:37:14;9.70;99.90
21163;DHT22;10739;52.198;20.908;2023-04-16T07:39:40;9.80;99.90
21163;DHT22;10739;52.198;20.908;2023-04-16T07:42:06;9.80;99.90
21163;DHT22;10739;52.198;20.908;2023-04-16T07:44:33;9.70;99.90
21163;DHT22;10739;52.198;20.908;2023-04-16T07:46:59;9.70;99.90
21163;DHT22;10739;52.198;20.908;2023-04-16T07:49:25;9.70;99.90
21163;DHT22;10739;52.198;20.908;2023-04-16T07:51:51;9.70;99.90
21163;DHT22;10739;52.198;20.908;2023-04-16T07:54:18;9.80;99.90
21163;DHT22;10739;52.198;20.908;2023-04-16T07:56:45;9.90;99.90
21163;DHT22;10739;52.198;20.908;2023-04-16T07:59:11;9.80;99.90
21163;DHT22;10739;52.198;20.908;2023-04-16T08:01:37;9.80;99.90
21163;DHT22;10739;52.198;20.908;2023-04-16T08:04:04;9.90;99.90
21163;DHT22;10739;52.198;20.908;2023-04-16T08:06:30;9.90;99.90
21163;DHT22;10739;52.198;20.908;2023-04-16T08:08:56;9.90;99.90
21163;DHT22;10739;52.198;20.908;2023-04-16T08:11:23;9.80;99.90
21163;DHT22;10739;52.198;20.908;2023-04-16T08:13:49;9.80;99.90
21163;DHT22;10739;52.198;20.908;2023-04-16T08:16:15;9.90;99.90
21163;DHT22;10739;52.198;20.908;2023-04-16T08:18:42;9.90;99.90
21163;DHT22;10739;52.198;20.908;2023-04-16T08:21:08;9.90;99.90
21163;DHT22;10739;52.198;20.908;2023-04-16T08:23:35;9.80;99.90
21163;DHT22;10739;52.198;20.908;2023-04-16T08:26:01;9.80;99.90
21163;DHT22;10739;52.198;20.908;2023-04-16T08:28:28;9.90;99.90
21163;DHT22;10739;52.198;20.908;2023-04-16T08:30:54;10.00;99.90
21163;DHT22;10739;52.198;20.908;2023-04-16T08:33:20;10.10;99.90
21163;DHT22;10739;52.198;20.908;2023-04-16T08:35:47;10.10;99.90
21163;DHT22;10739;52.198;20.908;2023-04-16T08:38:13;10.30;99.90
21163;DHT22;10739;52.198;20.908;2023-04-16T08:40:40;10.40;99.90
21163;DHT22;10739;52.198;20.908;2023-04-16T08:43:09;10.40;99.90
21163;DHT22;10739;52.198;20.908;2023-04-16T08:45:39;10.50;99.90
21163;DHT22;10739;52.198;20.908;2023-04-16T08:48:10;10.60;99.90
21163;DHT22;10739;52.198;20.908;2023-04-16T08:50:37;10.70;99.90
21163;DHT22;10739;52.198;20.908;2023-04-16T08:53:06;10.80;99.90
21163;DHT22;10739;52.198;20.908;2023-04-16T08:55:47;11.00;99.90
21163;DHT22;10739;52.198;20.908;2023-04-16T08:58:21;11.20;99.90
21163;DHT22;10739;52.198;20.908;2023-04-16T09:00:48;11.30;99.90
21163;DHT22;10739;52.198;20.908;2023-04-16T09:03:16;11.30;99.90
21163;DHT22;10739;52.198;20.908;2023-04-16T09:05:45;11.20;99.90
21163;DHT22;10739;52.198;20.908;2023-04-16T09:08:12;11.10;99.90
21163;DHT22;10739;52.198;20.908;2023-04-16T09:10:38;11.10;99.90
21163;DHT22;10739;52.198;20.908;2023-04-16T09:13:04;11.10;99.90
21163;DHT22;10739;52.198;20.908;2023-04-16T09:15:34;10.80;99.90
21163;DHT22;10739;52.198;20.908;2023-04-16T09:18:01;11.00;99.90
21163;DHT22;10739;52.198;20.908;2023-04-16T09:20:27;11.10;99.90
21163;DHT22;10739;52.198;20.908;2023-04-16T09:22:54;11.10;99.90
21163;DHT22;10739;52.198;20.908;2023-04-16T09:25:22;11.10;99.90
21163;DHT22;10739;52.198;20.908;2023-04-16T09:27:50;11.20;99.90
21163;DHT22;10739;52.198;20.908;2023-04-16T09:30:26;11.40;99.90
21163;DHT22;10739;52.198;20.908;2023-04-16T09:33:17;11.50;99.90
21163;DHT22;10739;52.198;20.908;2023-04-16T09:35:48;11.50;99.90
21163;DHT22;10739;52.198;20.908;2023-04-16T09:38:16;11.50;99.90
21163;DHT22;10739;52.198;20.908;2023-04-16T09:40:43;11.50;99.90
21163;DHT22;10739;52.198;20.908;2023-04-16T09:43:17;11.50;99.90
21163;DHT22;10739;52.198;20.908;2023-04-16T09:45:51;11.60;99.90
21163;DHT22;10739;52.198;20.908;2023-04-16T09:48:32;11.70;99.90
21163;DHT22;10739;52.198;20.908;2023-04-16T09:50:59;11.80;99.90
21163;DHT22;10739;52.198;20.908;2023-04-16T09:53:30;11.90;99.90
21163;DHT22;10739;52.198;20.908;2023-04-16T09:56:02;12.00;99.90
21163;DHT22;10739;52.198;20.908;2023-04-16T09:58:29;12.10;99.90
21163;DHT22;10739;52.198;20.908;2023-04-16T10:01:05;12.10;99.90
21163;DHT22;10739;52.198;20.908;2023-04-16T10:03:33;12.10;99.90
21163;DHT22;10739;52.198;20.908;2023-04-16T10:06:08;12.10;99.90
21163;DHT22;10739;52.198;20.908;2023-04-16T10:08:46;12.10;99.90
21163;DHT22;10739;52.198;20.908;2023-04-16T10:11:14;12.00;99.90
21163;DHT22;10739;52.198;20.908;2023-04-16T10:13:40;11.90;99.90
21163;DHT22;10739;52.198;20.908;2023-04-16T10:16:10;11.90;99.90
21163;DHT22;10739;52.198;20.908;2023-04-16T10:18:41;12.00;99.90
21163;DHT22;10739;52.198;20.908;2023-04-16T10:21:10;12.00;99.90
21163;DHT22;10739;52.198;20.908;2023-04-16T10:23:41;12.10;99.90
21163;DHT22;10739;52.198;20.908;2023-04-16T10:26:08;12.10;99.90
21163;DHT22;10739;52.198;20.908;2023-04-16T10:28:36;12.10;99.90
21163;DHT22;10739;52.198;20.908;2023-04-16T10:31:07;12.20;99.90
21163;DHT22;10739;52.198;20.908;2023-04-16T10:33:36;12.20;99.90
21163;DHT22;10739;52.198;20.908;2023-04-16T10:36:10;12.30;99.90
21163;DHT22;10739;52.198;20.908;2023-04-16T10:38:45;12.40;99.90
21163;DHT22;10739;52.198;20.908;2023-04-16T10:41:14;12.50;99.90
21163;DHT22;10739;52.198;20.908;2023-04-16T10:43:45;12.50;99.90
21163;DHT22;10739;52.198;20.908;2023-04-16T10:46:24;12.60;99.90
21163;DHT22;10739;52.198;20.908;2023-04-16T10:48:59;12.70;99.90
21163;DHT22;10739;52.198;20.908;2023-04-16T10:51:32;12.80;99.90
21163;DHT22;10739;52.198;20.908;2023-04-16T10:54:27;12.80;99.90
21163;DHT22;10739;52.198;20.908;2023-04-16T10:56:57;12.80;99.90
21163;DHT22;10739;52.198;20.908;2023-04-16T10:59:29;12.80;99.90
21163;DHT22;10739;52.198;20.908;2023-04-16T11:02:00;12.80;99.90
21163;DHT22;10739;52.198;20.908;2023-04-16T11:04:36;12.80;99.90
21163;DHT22;10739;52.198;20.908;2023-04-16T11:07:19;12.80;99.90
21163;DHT22;10739;52.198;20.908;2023-04-16T11:10:06;12.90;99.90
21163;DHT22;10739;52.198;20.908;2023-04-16T11:12:41;12.90;99.90
21163;DHT22;10739;52.198;20.908;2023-04-16T11:15:15;12.90;99.90
21163;DHT22;10739;52.198;20.908;2023-04-16T11:17:46;12.90;99.90
21163;DHT22;10739;52.198;20.908;2023-04-16T11:20:18;12.80;99.90
21163;DHT22;10739;52.198;20.908;2023-04-16T11:22:45;12.80;99.90
21163;DHT22;10739;52.198;20.908;2023-04-16T11:25:11;12.80;99.90
21163;DHT22;10739;52.198;20.908;2023-04-16T11:27:38;12.90;99.90
21163;DHT22;10739;52.198;20.908;2023-04-16T11:30:08;12.90;99.90
21163;DHT22;10739;52.198;20.908;2023-04-16T11:32:35;12.70;99.90
21163;DHT22;10739;52.198;20.908;2023-04-16T11:35:11;12.70;99.90
21163;DHT22;10739;52.198;20.908;2023-04-16T11:37:41;12.80;99.90
21163;DHT22;10739;52.198;20.908;2023-04-16T11:40:08;12.90;99.90
21163;DHT22;10739;52.198;20.908;2023-04-16T11:42:36;12.90;99.90
21163;DHT22;10739;52.198;20.908;2023-04-16T11:45:07;13.00;99.90
21163;DHT22;10739;52.198;20.908;2023-04-16T11:47:49;13.00;99.90
21163;DHT22;10739;52.198;20.908;2023-04-16T11:52:48;13.20;99.90
21163;DHT22;10739;52.198;20.908;2023-04-16T11:55:16;13.20;99.90
21163;DHT22;10739;52.198;20.908;2023-04-16T11:57:42;13.40;99.90
21163;DHT22;10739;52.198;20.908;2023-04-16T12:00:11;13.50;99.90
21163;DHT22;10739;52.198;20.908;2023-04-16T12:05:31;13.80;99.90
21163;DHT22;10739;52.198;20.908;2023-04-16T12:08:01;13.80;99.90
21163;DHT22;10739;52.198;20.908;2023-04-16T12:10:32;13.80;99.90
21163;DHT22;10739;52.198;20.908;2023-04-16T12:13:13;13.80;99.90
21163;DHT22;10739;52.198;20.908;2023-04-16T12:18:16;15.90;99.90
21163;DHT22;10739;52.198;20.908;2023-04-16T12:20:43;17.00;99.80
21163;DHT22;10739;52.198;20.908;2023-04-16T12:23:28;17.80;95.70
21163;DHT22;10739;52.198;20.908;2023-04-16T12:25:56;18.70;92.00
21163;DHT22;10739;52.198;20.908;2023-04-16T12:28:31;18.80;81.90
21163;DHT22;10739;52.198;20.908;2023-04-16T12:31:00;18.10;84.50
21163;DHT22;10739;52.198;20.908;2023-04-16T12:33:27;17.30;94.30
21163;DHT22;10739;52.198;20.908;2023-04-16T12:35:54;17.20;95.30
21163;DHT22;10739;52.198;20.908;2023-04-16T12:38:20;17.30;93.60
21163;DHT22;10739;52.198;20.908;2023-04-16T12:40:47;18.10;91.30
21163;DHT22;10739;52.198;20.908;2023-04-16T12:43:13;19.20;83.30
21163;DHT22;10739;52.198;20.908;2023-04-16T12:45:39;19.80;79.90
21163;DHT22;10739;52.198;20.908;2023-04-16T12:48:06;19.40;76.50
21163;DHT22;10739;52.198;20.908;2023-04-16T12:50:32;19.70;78.70
21163;DHT22;10739;52.198;20.908;2023-04-16T12:52:59;19.70;74.80
21163;DHT22;10739;52.198;20.908;2023-04-16T12:55:25;19.70;72.90
21163;DHT22;10739;52.198;20.908;2023-04-16T12:57:53;19.00;74.20
21163;DHT22;10739;52.198;20.908;2023-04-16T13:00:19;17.90;78.40
21163;DHT22;10739;52.198;20.908;2023-04-16T13:02:46;17.30;87.50
21163;DHT22;10739;52.198;20.908;2023-04-16T13:05:12;16.90;92.10
21163;DHT22;10739;52.198;20.908;2023-04-16T13:07:43;16.50;95.20
21163;DHT22;10739;52.198;20.908;2023-04-16T13:10:09;16.10;99.40
21163;DHT22;10739;52.198;20.908;2023-04-16T13:12:36;16.00;99.90
21163;DHT22;10739;52.198;20.908;2023-04-16T13:15:03;15.80;99.90
21163;DHT22;10739;52.198;20.908;2023-04-16T13:17:29;15.50;99.90
21163;DHT22;10739;52.198;20.908;2023-04-16T13:19:55;15.40;99.90
21163;DHT22;10739;52.198;20.908;2023-04-16T13:22:22;15.30;99.90
21163;DHT22;10739;52.198;20.908;2023-04-16T13:24:49;15.40;99.90
21163;DHT22;10739;52.198;20.908;2023-04-16T13:27:15;15.70;99.90
21163;DHT22;10739;52.198;20.908;2023-04-16T13:29:41;15.80;99.90
21163;DHT22;10739;52.198;20.908;2023-04-16T13:32:08;15.80;99.90
21163;DHT22;10739;52.198;20.908;2023-04-16T13:34:35;15.80;99.90
21163;DHT22;10739;52.198;20.908;2023-04-16T13:37:01;16.30;99.90
21163;DHT22;10739;52.198;20.908;2023-04-16T13:39:27;17.30;99.90
21163;DHT22;10739;52.198;20.908;2023-04-16T13:41:53;17.90;95.20
21163;DHT22;10739;52.198;20.908;2023-04-16T13:44:20;17.30;92.60
21163;DHT22;10739;52.198;20.908;2023-04-16T13:46:46;16.80;96.80
21163;DHT22;10739;52.198;20.908;2023-04-16T13:49:13;16.50;99.50
21163;DHT22;10739;52.198;20.908;2023-04-16T13:51:42;16.10;98.80
21163;DHT22;10739;52.198;20.908;2023-04-16T13:54:09;15.70;99.90
21163;DHT22;10739;52.198;20.908;2023-04-16T13:56:35;15.90;99.90
21163;DHT22;10739;52.198;20.908;2023-04-16T13:59:01;16.80;99.90
21163;DHT22;10739;52.198;20.908;2023-04-16T14:01:28;17.20;97.20
21163;DHT22;10739;52.198;20.908;2023-04-16T14:03:54;17.20;95.50
21163;DHT22;10739;52.198;20.908;2023-04-16T14:06:20;16.70;98.80
21163;DHT22;10739;52.198;20.908;2023-04-16T14:08:46;16.30;99.90
21163;DHT22;10739;52.198;20.908;2023-04-16T14:11:13;16.30;98.90
21163;DHT22;10739;52.198;20.908;2023-04-16T14:13:39;16.40;99.10
21163;DHT22;10739;52.198;20.908;2023-04-16T14:16:06;16.90;99.60
21163;DHT22;10739;52.198;20.908;2023-04-16T14:18:33;17.20;99.90
21163;DHT22;10739;52.198;20.908;2023-04-16T14:21:00;17.90;95.90
21163;DHT22;10739;52.198;20.908;2023-04-16T14:23:26;18.80;93.00
21163;DHT22;10739;52.198;20.908;2023-04-16T14:25:53;19.20;89.20
21163;DHT22;10739;52.198;20.908;2023-04-16T14:28:20;19.60;83.00
21163;DHT22;10739;52.198;20.908;2023-04-16T14:30:46;19.90;79.30
21163;DHT22;10739;52.198;20.908;2023-04-16T14:33:12;19.90;76.40
21163;DHT22;10739;52.198;20.908;2023-04-16T14:35:39;20.20;76.70
21163;DHT22;10739;52.198;20.908;2023-04-16T14:38:06;20.60;73.10
21163;DHT22;10739;52.198;20.908;2023-04-16T14:40:33;20.80;72.30
21163;DHT22;10739;52.198;20.908;2023-04-16T14:43:00;20.80;72.60
21163;DHT22;10739;52.198;20.908;2023-04-16T14:45:26;20.40;70.90
21163;DHT22;10739;52.198;20.908;2023-04-16T14:47:54;19.50;74.70
21163;DHT22;10739;52.198;20.908;2023-04-16T14:50:21;18.50;85.50
21163;DHT22;10739;52.198;20.908;2023-04-16T14:52:49;17.70;88.40
21163;DHT22;10739;52.198;20.908;2023-04-16T14:55:15;17.40;94.50
21163;DHT22;10739;52.198;20.908;2023-04-16T14:57:42;17.00;96.50
21163;DHT22;10739;52.198;20.908;2023-04-16T15:00:09;16.90;99.10
21163;DHT22;10739;52.198;20.908;2023-04-16T15:02:37;16.40;99.90
21163;DHT22;10739;52.198;20.908;2023-04-16T15:05:03;16.10;99.90
21163;DHT22;10739;52.198;20.908;2023-04-16T15:07:30;15.60;99.90
21163;DHT22;10739;52.198;20.908;2023-04-16T15:09:57;15.50;99.90
21163;DHT22;10739;52.198;20.908;2023-04-16T15:12:23;15.40;99.90
21163;DHT22;10739;52.198;20.908;2023-04-16T15:14:51;15.30;99.90
21163;DHT22;10739;52.198;20.908;2023-04-16T15:17:17;15.40;99.90
21163;DHT22;10739;52.198;20.908;2023-04-16T15:19:44;15.30;99.90
21163;DHT22;10739;52.198;20.908;2023-04-16T15:22:10;15.10;99.90
21163;DHT22;10739;52.198;20.908;2023-04-16T15:24:37;14.90;99.90
21163;DHT22;10739;52.198;20.908;2023-04-16T15:27:03;14.80;99.90
21163;DHT22;10739;52.198;20.908;2023-04-16T15:29:31;14.60;99.90
21163;DHT22;10739;52.198;20.908;2023-04-16T15:31:57;14.40;99.90
21163;DHT22;10739;52.198;20.908;2023-04-16T15:34:25;14.20;99.90